KDTW/DTW METAR and TAF weather

Enter ICAO airport designator
Station Type Date Time Source
KDTW METAR 2020/04/06 13:53 UTC NOAA

KDTW 061353Z 00000KT 7SM BKN250 07/02 A3019 RMK AO2 SLP226 T00720022


Station Type Date Time Source
KDTW Decoded METAR 2020/04/06 13:53 UTC NOAA

DETROIT METROPOLITAN, MI, United States (KDTW) 42-14N 83-20W 195M
Apr 06, 2020 - 09:53 AM EDT / 2020.04.06 1353 UTC
Wind: Calm:0
Visibility: 7 mile(s):0
Sky conditions: mostly cloudy
Temperature: 45.0 F (7.2 C)
Dew Point: 36.0 F (2.2 C)
Relative Humidity: 70%
Pressure (altimeter): 30.19 in. Hg (1022 hPa)
ob: KDTW 061353Z 00000KT 7SM BKN250 07/02 A3019 RMK AO2 SLP226 T00720022
cycle: 14

Station Type Date Time Source
KDTW TAF 2020/04/06 12:22 UTC NOAA

TAF KDTW 061120Z 0612/0718 VRB03KT 4SM BR BKN250
FM061300 13005KT P6SM BKN250
FM062000 16005KT P6SM OVC120
FM070100 16005KT P6SM OVC060
FM070500 13005KT 5SM BR BKN020 OVC040 PROB30 0706/0712 3SM -RA BR OVC015
FM071200 11005KT 3SM BR OVC012

Example: see airport list